Aviation Digital Data Service (ADDS)

Output produced by METARs form (1145 UTC 01 November 2014)
found at http://aviationweather.gov/adds/metars/
 
KRUT 011125Z 0112/0212 VRB04KT P6SM SCT040 OVC120 
     FM011400 02006KT P6SM VCSH OVC040 
     FM011700 35010KT P6SM -RA OVC025 
     FM020000 34010KT 4SM -RASN BR OVC018 
     FM020800 34010KT P6SM VCSH OVC018 AMD LTD TO CLD VIS AND WIND